sensor_id;sensor_type;location;lat;lon;timestamp;P1;durP1;ratioP1;P2;durP2;ratioP2
5882;SDS011;2967;51.488;6.618;2022-07-23T00:02:54;8.17;;;5.80;;
5882;SDS011;2967;51.488;6.618;2022-07-23T00:07:59;9.90;;;5.57;;
5882;SDS011;2967;51.488;6.618;2022-07-23T00:13:02;7.40;;;5.73;;
5882;SDS011;2967;51.488;6.618;2022-07-23T00:18:05;7.60;;;5.27;;
5882;SDS011;2967;51.488;6.618;2022-07-23T00:23:09;6.53;;;5.83;;
5882;SDS011;2967;51.488;6.618;2022-07-23T00:28:12;7.53;;;5.30;;
5882;SDS011;2967;51.488;6.618;2022-07-23T00:33:15;6.80;;;5.47;;
5882;SDS011;2967;51.488;6.618;2022-07-23T00:38:19;6.83;;;5.43;;
5882;SDS011;2967;51.488;6.618;2022-07-23T00:43:22;6.17;;;5.60;;
5882;SDS011;2967;51.488;6.618;2022-07-23T00:48:26;7.30;;;6.10;;
5882;SDS011;2967;51.488;6.618;2022-07-23T00:53:30;5.50;;;5.00;;
5882;SDS011;2967;51.488;6.618;2022-07-23T00:58:34;6.80;;;5.40;;
5882;SDS011;2967;51.488;6.618;2022-07-23T01:03:37;6.97;;;6.27;;
5882;SDS011;2967;51.488;6.618;2022-07-23T01:08:42;10.13;;;6.20;;
5882;SDS011;2967;51.488;6.618;2022-07-23T01:13:45;8.90;;;6.53;;
5882;SDS011;2967;51.488;6.618;2022-07-23T01:18:47;9.53;;;6.33;;
5882;SDS011;2967;51.488;6.618;2022-07-23T01:23:51;8.20;;;6.53;;
5882;SDS011;2967;51.488;6.618;2022-07-23T01:28:55;8.77;;;6.20;;
5882;SDS011;2967;51.488;6.618;2022-07-23T01:33:58;8.93;;;5.80;;
5882;SDS011;2967;51.488;6.618;2022-07-23T01:39:03;7.50;;;5.23;;
5882;SDS011;2967;51.488;6.618;2022-07-23T01:44:08;6.20;;;5.60;;
5882;SDS011;2967;51.488;6.618;2022-07-23T01:49:15;6.87;;;6.17;;
5882;SDS011;2967;51.488;6.618;2022-07-23T01:54:38;7.83;;;5.80;;
5882;SDS011;2967;51.488;6.618;2022-07-23T01:59:42;7.50;;;5.50;;
5882;SDS011;2967;51.488;6.618;2022-07-23T02:04:45;11.03;;;5.97;;
5882;SDS011;2967;51.488;6.618;2022-07-23T02:09:51;6.13;;;4.83;;
5882;SDS011;2967;51.488;6.618;2022-07-23T02:14:54;7.10;;;5.47;;
5882;SDS011;2967;51.488;6.618;2022-07-23T02:19:59;6.03;;;5.47;;
5882;SDS011;2967;51.488;6.618;2022-07-23T02:25:03;8.20;;;5.00;;
5882;SDS011;2967;51.488;6.618;2022-07-23T02:30:07;7.90;;;5.90;;
5882;SDS011;2967;51.488;6.618;2022-07-23T02:35:10;8.27;;;5.33;;
5882;SDS011;2967;51.488;6.618;2022-07-23T02:40:14;6.37;;;5.20;;
5882;SDS011;2967;51.488;6.618;2022-07-23T02:45:17;7.93;;;5.77;;
5882;SDS011;2967;51.488;6.618;2022-07-23T02:50:20;9.50;;;6.13;;
5882;SDS011;2967;51.488;6.618;2022-07-23T02:55:25;6.13;;;5.50;;
5882;SDS011;2967;51.488;6.618;2022-07-23T03:00:28;9.50;;;6.80;;
5882;SDS011;2967;51.488;6.618;2022-07-23T03:05:31;10.43;;;7.30;;
5882;SDS011;2967;51.488;6.618;2022-07-23T03:10:35;8.40;;;6.70;;
5882;SDS011;2967;51.488;6.618;2022-07-23T03:15:38;12.57;;;7.30;;
5882;SDS011;2967;51.488;6.618;2022-07-23T03:20:41;10.43;;;6.40;;
5882;SDS011;2967;51.488;6.618;2022-07-23T03:25:46;9.83;;;8.50;;
5882;SDS011;2967;51.488;6.618;2022-07-23T03:30:54;12.57;;;7.97;;
5882;SDS011;2967;51.488;6.618;2022-07-23T03:35:57;10.60;;;7.77;;
5882;SDS011;2967;51.488;6.618;2022-07-23T03:41:05;8.93;;;7.30;;
5882;SDS011;2967;51.488;6.618;2022-07-23T03:46:07;14.77;;;7.63;;
5882;SDS011;2967;51.488;6.618;2022-07-23T03:51:11;11.83;;;8.20;;
5882;SDS011;2967;51.488;6.618;2022-07-23T03:56:15;9.30;;;7.30;;
5882;SDS011;2967;51.488;6.618;2022-07-23T04:01:18;13.27;;;8.30;;
5882;SDS011;2967;51.488;6.618;2022-07-23T04:06:21;11.07;;;8.70;;
5882;SDS011;2967;51.488;6.618;2022-07-23T04:11:27;12.67;;;8.90;;
5882;SDS011;2967;51.488;6.618;2022-07-23T04:16:30;11.00;;;8.57;;
5882;SDS011;2967;51.488;6.618;2022-07-23T04:21:33;11.50;;;9.40;;
5882;SDS011;2967;51.488;6.618;2022-07-23T04:26:37;9.57;;;8.27;;
5882;SDS011;2967;51.488;6.618;2022-07-23T04:31:40;9.50;;;7.80;;
5882;SDS011;2967;51.488;6.618;2022-07-23T04:36:46;10.63;;;8.43;;
5882;SDS011;2967;51.488;6.618;2022-07-23T04:41:50;13.23;;;9.27;;
5882;SDS011;2967;51.488;6.618;2022-07-23T04:46:53;10.00;;;9.10;;
5882;SDS011;2967;51.488;6.618;2022-07-23T04:51:57;12.40;;;9.40;;
5882;SDS011;2967;51.488;6.618;2022-07-23T04:57:01;12.30;;;11.00;;
5882;SDS011;2967;51.488;6.618;2022-07-23T05:02:04;12.30;;;9.40;;
5882;SDS011;2967;51.488;6.618;2022-07-23T05:07:12;12.40;;;11.10;;
5882;SDS011;2967;51.488;6.618;2022-07-23T05:12:16;12.50;;;11.20;;
5882;SDS011;2967;51.488;6.618;2022-07-23T05:17:19;17.57;;;11.03;;
5882;SDS011;2967;51.488;6.618;2022-07-23T05:22:22;11.77;;;10.53;;
5882;SDS011;2967;51.488;6.618;2022-07-23T05:27:26;12.80;;;11.60;;
5882;SDS011;2967;51.488;6.618;2022-07-23T05:32:30;15.83;;;11.67;;
5882;SDS011;2967;51.488;6.618;2022-07-23T05:37:42;11.13;;;9.90;;
5882;SDS011;2967;51.488;6.618;2022-07-23T05:42:46;17.73;;;10.43;;
5882;SDS011;2967;51.488;6.618;2022-07-23T05:47:49;16.13;;;10.30;;
5882;SDS011;2967;51.488;6.618;2022-07-23T05:53:00;11.23;;;10.10;;
5882;SDS011;2967;51.488;6.618;2022-07-23T05:58:19;13.90;;;11.43;;
5882;SDS011;2967;51.488;6.618;2022-07-23T06:03:22;10.67;;;9.57;;
5882;SDS011;2967;51.488;6.618;2022-07-23T06:08:25;13.53;;;9.73;;
5882;SDS011;2967;51.488;6.618;2022-07-23T06:13:29;11.20;;;10.10;;
5882;SDS011;2967;51.488;6.618;2022-07-23T06:18:33;11.33;;;9.90;;
5882;SDS011;2967;51.488;6.618;2022-07-23T06:23:36;10.70;;;9.70;;
5882;SDS011;2967;51.488;6.618;2022-07-23T06:28:40;10.23;;;9.10;;
5882;SDS011;2967;51.488;6.618;2022-07-23T06:33:43;11.80;;;10.50;;
5882;SDS011;2967;51.488;6.618;2022-07-23T06:38:46;13.17;;;8.57;;
5882;SDS011;2967;51.488;6.618;2022-07-23T06:43:51;9.53;;;8.07;;
5882;SDS011;2967;51.488;6.618;2022-07-23T06:48:56;10.57;;;8.40;;
5882;SDS011;2967;51.488;6.618;2022-07-23T06:53:58;11.07;;;7.30;;
5882;SDS011;2967;51.488;6.618;2022-07-23T06:59:02;8.27;;;6.80;;
5882;SDS011;2967;51.488;6.618;2022-07-23T07:04:06;11.80;;;7.33;;
5882;SDS011;2967;51.488;6.618;2022-07-23T07:09:09;10.43;;;7.50;;
5882;SDS011;2967;51.488;6.618;2022-07-23T07:14:14;12.93;;;6.20;;
5882;SDS011;2967;51.488;6.618;2022-07-23T07:19:17;10.30;;;5.90;;
5882;SDS011;2967;51.488;6.618;2022-07-23T07:24:19;11.90;;;5.90;;
5882;SDS011;2967;51.488;6.618;2022-07-23T07:29:26;8.33;;;5.07;;
5882;SDS011;2967;51.488;6.618;2022-07-23T07:34:29;9.27;;;6.43;;
5882;SDS011;2967;51.488;6.618;2022-07-23T07:39:32;9.67;;;6.10;;
5882;SDS011;2967;51.488;6.618;2022-07-23T07:44:36;11.93;;;7.50;;
5882;SDS011;2967;51.488;6.618;2022-07-23T07:49:39;12.70;;;5.80;;
5882;SDS011;2967;51.488;6.618;2022-07-23T07:54:42;10.03;;;4.97;;
5882;SDS011;2967;51.488;6.618;2022-07-23T07:59:46;16.80;;;5.80;;
5882;SDS011;2967;51.488;6.618;2022-07-23T08:04:55;9.23;;;6.27;;
5882;SDS011;2967;51.488;6.618;2022-07-23T08:09:58;8.43;;;5.90;;
5882;SDS011;2967;51.488;6.618;2022-07-23T08:15:03;5.43;;;4.93;;
5882;SDS011;2967;51.488;6.618;2022-07-23T08:20:15;4.77;;;4.27;;
5882;SDS011;2967;51.488;6.618;2022-07-23T08:25:20;8.60;;;5.30;;
5882;SDS011;2967;51.488;6.618;2022-07-23T08:30:26;4.30;;;3.90;;
5882;SDS011;2967;51.488;6.618;2022-07-23T08:35:31;8.40;;;4.40;;
5882;SDS011;2967;51.488;6.618;2022-07-23T08:40:38;6.60;;;3.27;;
5882;SDS011;2967;51.488;6.618;2022-07-23T08:45:46;5.87;;;3.90;;
5882;SDS011;2967;51.488;6.618;2022-07-23T08:50:53;3.87;;;3.47;;
5882;SDS011;2967;51.488;6.618;2022-07-23T08:55:59;5.90;;;4.93;;
5882;SDS011;2967;51.488;6.618;2022-07-23T09:01:05;7.77;;;3.80;;
5882;SDS011;2967;51.488;6.618;2022-07-23T09:06:09;4.53;;;3.87;;
5882;SDS011;2967;51.488;6.618;2022-07-23T09:11:13;4.77;;;3.07;;
5882;SDS011;2967;51.488;6.618;2022-07-23T09:16:20;5.50;;;3.50;;
5882;SDS011;2967;51.488;6.618;2022-07-23T09:21:27;10.83;;;3.97;;
5882;SDS011;2967;51.488;6.618;2022-07-23T09:26:32;8.57;;;3.60;;
5882;SDS011;2967;51.488;6.618;2022-07-23T09:31:43;5.57;;;4.07;;
5882;SDS011;2967;51.488;6.618;2022-07-23T09:36:48;6.63;;;4.43;;
5882;SDS011;2967;51.488;6.618;2022-07-23T09:41:52;4.57;;;3.47;;
5882;SDS011;2967;51.488;6.618;2022-07-23T09:46:58;3.50;;;3.20;;
5882;SDS011;2967;51.488;6.618;2022-07-23T09:52:03;7.17;;;3.30;;
5882;SDS011;2967;51.488;6.618;2022-07-23T09:57:09;4.83;;;3.50;;
5882;SDS011;2967;51.488;6.618;2022-07-23T10:02:17;10.20;;;3.80;;
5882;SDS011;2967;51.488;6.618;2022-07-23T10:07:45;6.80;;;4.13;;
5882;SDS011;2967;51.488;6.618;2022-07-23T10:13:19;4.40;;;3.70;;
5882;SDS011;2967;51.488;6.618;2022-07-23T10:18:41;5.97;;;3.00;;
5882;SDS011;2967;51.488;6.618;2022-07-23T10:23:47;3.50;;;2.27;;
5882;SDS011;2967;51.488;6.618;2022-07-23T10:29:10;7.23;;;3.40;;
5882;SDS011;2967;51.488;6.618;2022-07-23T10:34:25;3.20;;;2.50;;
5882;SDS011;2967;51.488;6.618;2022-07-23T10:39:38;4.27;;;3.63;;
5882;SDS011;2967;51.488;6.618;2022-07-23T10:44:41;4.50;;;2.47;;
5882;SDS011;2967;51.488;6.618;2022-07-23T10:49:47;3.43;;;2.80;;
5882;SDS011;2967;51.488;6.618;2022-07-23T10:54:50;4.00;;;2.90;;
5882;SDS011;2967;51.488;6.618;2022-07-23T11:05:39;3.50;;;2.63;;
5882;SDS011;2967;51.488;6.618;2022-07-23T11:10:45;5.30;;;2.87;;
5882;SDS011;2967;51.488;6.618;2022-07-23T11:16:03;3.10;;;2.20;;
5882;SDS011;2967;51.488;6.618;2022-07-23T11:26:50;2.77;;;2.30;;
5882;SDS011;2967;51.488;6.618;2022-07-23T11:31:56;5.13;;;2.40;;
5882;SDS011;2967;51.488;6.618;2022-07-23T11:37:03;3.63;;;3.33;;
5882;SDS011;2967;51.488;6.618;2022-07-23T11:42:07;3.70;;;2.53;;
5882;SDS011;2967;51.488;6.618;2022-07-23T11:47:12;2.47;;;2.20;;
5882;SDS011;2967;51.488;6.618;2022-07-23T11:52:16;5.27;;;2.20;;
5882;SDS011;2967;51.488;6.618;2022-07-23T11:57:20;2.93;;;2.37;;
5882;SDS011;2967;51.488;6.618;2022-07-23T12:02:26;3.50;;;2.13;;
5882;SDS011;2967;51.488;6.618;2022-07-23T12:07:32;2.33;;;2.13;;
5882;SDS011;2967;51.488;6.618;2022-07-23T12:12:37;3.93;;;2.40;;
5882;SDS011;2967;51.488;6.618;2022-07-23T12:17:43;3.87;;;1.93;;
5882;SDS011;2967;51.488;6.618;2022-07-23T12:22:58;2.87;;;2.50;;
5882;SDS011;2967;51.488;6.618;2022-07-23T12:28:06;3.60;;;2.30;;
5882;SDS011;2967;51.488;6.618;2022-07-23T12:33:11;2.63;;;2.30;;
5882;SDS011;2967;51.488;6.618;2022-07-23T12:38:18;2.20;;;2.00;;
5882;SDS011;2967;51.488;6.618;2022-07-23T12:43:24;4.33;;;2.50;;
5882;SDS011;2967;51.488;6.618;2022-07-23T12:48:29;1.87;;;1.60;;
5882;SDS011;2967;51.488;6.618;2022-07-23T12:53:36;6.90;;;2.50;;
5882;SDS011;2967;51.488;6.618;2022-07-23T12:58:42;4.37;;;2.50;;
5882;SDS011;2967;51.488;6.618;2022-07-23T13:03:55;2.30;;;2.10;;
5882;SDS011;2967;51.488;6.618;2022-07-23T13:09:15;3.70;;;2.37;;
5882;SDS011;2967;51.488;6.618;2022-07-23T13:14:21;5.23;;;2.37;;
5882;SDS011;2967;51.488;6.618;2022-07-23T13:19:27;3.70;;;2.53;;
5882;SDS011;2967;51.488;6.618;2022-07-23T13:24:31;2.47;;;2.17;;
5882;SDS011;2967;51.488;6.618;2022-07-23T13:29:37;3.43;;;2.43;;
5882;SDS011;2967;51.488;6.618;2022-07-23T13:34:40;1.73;;;1.60;;
5882;SDS011;2967;51.488;6.618;2022-07-23T13:39:47;5.10;;;2.30;;
5882;SDS011;2967;51.488;6.618;2022-07-23T13:44:51;4.07;;;2.93;;
5882;SDS011;2967;51.488;6.618;2022-07-23T13:49:55;3.70;;;2.37;;
5882;SDS011;2967;51.488;6.618;2022-07-23T13:55:00;3.60;;;2.13;;
5882;SDS011;2967;51.488;6.618;2022-07-23T14:00:04;3.80;;;2.57;;
5882;SDS011;2967;51.488;6.618;2022-07-23T14:05:31;2.67;;;2.37;;
5882;SDS011;2967;51.488;6.618;2022-07-23T14:10:36;6.03;;;2.37;;
5882;SDS011;2967;51.488;6.618;2022-07-23T14:15:40;4.10;;;2.40;;
5882;SDS011;2967;51.488;6.618;2022-07-23T14:20:43;2.93;;;2.47;;
5882;SDS011;2967;51.488;6.618;2022-07-23T14:25:47;4.43;;;2.83;;
5882;SDS011;2967;51.488;6.618;2022-07-23T14:30:50;2.63;;;2.43;;
5882;SDS011;2967;51.488;6.618;2022-07-23T14:35:53;2.53;;;2.30;;
5882;SDS011;2967;51.488;6.618;2022-07-23T14:40:57;4.50;;;1.97;;
5882;SDS011;2967;51.488;6.618;2022-07-23T14:46:01;2.13;;;2.00;;
5882;SDS011;2967;51.488;6.618;2022-07-23T14:51:04;2.43;;;2.20;;
5882;SDS011;2967;51.488;6.618;2022-07-23T14:56:09;3.40;;;2.30;;
5882;SDS011;2967;51.488;6.618;2022-07-23T15:01:18;3.87;;;2.23;;
5882;SDS011;2967;51.488;6.618;2022-07-23T15:06:21;3.53;;;2.60;;
5882;SDS011;2967;51.488;6.618;2022-07-23T15:11:26;4.83;;;2.10;;
5882;SDS011;2967;51.488;6.618;2022-07-23T15:16:37;3.63;;;2.27;;
5882;SDS011;2967;51.488;6.618;2022-07-23T15:21:40;3.50;;;2.23;;
5882;SDS011;2967;51.488;6.618;2022-07-23T15:26:51;5.83;;;2.53;;
5882;SDS011;2967;51.488;6.618;2022-07-23T15:31:53;2.53;;;2.20;;
5882;SDS011;2967;51.488;6.618;2022-07-23T15:37:08;6.33;;;3.30;;
5882;SDS011;2967;51.488;6.618;2022-07-23T15:42:13;5.73;;;2.53;;
5882;SDS011;2967;51.488;6.618;2022-07-23T15:47:17;8.83;;;2.77;;
5882;SDS011;2967;51.488;6.618;2022-07-23T15:52:23;2.60;;;2.40;;
5882;SDS011;2967;51.488;6.618;2022-07-23T15:57:27;3.17;;;2.60;;
5882;SDS011;2967;51.488;6.618;2022-07-23T16:02:32;4.30;;;3.60;;
5882;SDS011;2967;51.488;6.618;2022-07-23T16:07:35;2.73;;;2.53;;
5882;SDS011;2967;51.488;6.618;2022-07-23T16:12:40;2.73;;;2.30;;
5882;SDS011;2967;51.488;6.618;2022-07-23T16:17:43;4.73;;;3.03;;
5882;SDS011;2967;51.488;6.618;2022-07-23T16:22:46;6.43;;;3.20;;
5882;SDS011;2967;51.488;6.618;2022-07-23T16:27:50;4.50;;;3.10;;
5882;SDS011;2967;51.488;6.618;2022-07-23T16:32:53;3.93;;;2.60;;
5882;SDS011;2967;51.488;6.618;2022-07-23T16:37:56;3.10;;;2.80;;
5882;SDS011;2967;51.488;6.618;2022-07-23T16:43:03;2.33;;;2.13;;
5882;SDS011;2967;51.488;6.618;2022-07-23T16:48:06;3.13;;;2.83;;
5882;SDS011;2967;51.488;6.618;2022-07-23T16:53:10;3.10;;;2.50;;
5882;SDS011;2967;51.488;6.618;2022-07-23T16:58:14;3.37;;;2.80;;
5882;SDS011;2967;51.488;6.618;2022-07-23T17:03:17;7.40;;;2.80;;
5882;SDS011;2967;51.488;6.618;2022-07-23T17:08:25;4.20;;;3.80;;
5882;SDS011;2967;51.488;6.618;2022-07-23T17:13:30;4.63;;;3.83;;
5882;SDS011;2967;51.488;6.618;2022-07-23T17:18:34;6.03;;;3.80;;
5882;SDS011;2967;51.488;6.618;2022-07-23T17:23:37;4.30;;;2.93;;
5882;SDS011;2967;51.488;6.618;2022-07-23T17:28:41;4.30;;;3.30;;
5882;SDS011;2967;51.488;6.618;2022-07-23T17:33:45;5.13;;;3.53;;
5882;SDS011;2967;51.488;6.618;2022-07-23T17:38:48;2.57;;;2.33;;
5882;SDS011;2967;51.488;6.618;2022-07-23T17:43:54;2.93;;;2.53;;
5882;SDS011;2967;51.488;6.618;2022-07-23T17:49:00;3.23;;;2.80;;
5882;SDS011;2967;51.488;6.618;2022-07-23T17:54:04;5.03;;;3.60;;
5882;SDS011;2967;51.488;6.618;2022-07-23T17:59:14;10.17;;;3.03;;
5882;SDS011;2967;51.488;6.618;2022-07-23T18:04:19;4.70;;;3.07;;
5882;SDS011;2967;51.488;6.618;2022-07-23T18:09:23;5.73;;;3.60;;
5882;SDS011;2967;51.488;6.618;2022-07-23T18:14:32;3.60;;;2.70;;
5882;SDS011;2967;51.488;6.618;2022-07-23T18:19:36;3.10;;;2.60;;
5882;SDS011;2967;51.488;6.618;2022-07-23T18:24:40;3.30;;;3.00;;
5882;SDS011;2967;51.488;6.618;2022-07-23T18:29:46;3.27;;;2.90;;
5882;SDS011;2967;51.488;6.618;2022-07-23T18:34:55;3.67;;;2.73;;
5882;SDS011;2967;51.488;6.618;2022-07-23T18:39:59;3.83;;;2.73;;
5882;SDS011;2967;51.488;6.618;2022-07-23T18:45:10;4.40;;;3.10;;
5882;SDS011;2967;51.488;6.618;2022-07-23T18:50:15;10.57;;;3.17;;
5882;SDS011;2967;51.488;6.618;2022-07-23T18:55:20;4.53;;;4.13;;
5882;SDS011;2967;51.488;6.618;2022-07-23T19:00:25;3.63;;;2.70;;
5882;SDS011;2967;51.488;6.618;2022-07-23T19:05:28;3.83;;;3.30;;
5882;SDS011;2967;51.488;6.618;2022-07-23T19:10:31;4.17;;;3.23;;
5882;SDS011;2967;51.488;6.618;2022-07-23T19:15:36;3.10;;;2.80;;
5882;SDS011;2967;51.488;6.618;2022-07-23T19:20:40;3.83;;;2.83;;
5882;SDS011;2967;51.488;6.618;2022-07-23T19:25:45;3.17;;;2.97;;
5882;SDS011;2967;51.488;6.618;2022-07-23T19:30:51;4.17;;;3.00;;
5882;SDS011;2967;51.488;6.618;2022-07-23T19:35:59;5.20;;;3.20;;
5882;SDS011;2967;51.488;6.618;2022-07-23T19:41:06;5.67;;;3.57;;
5882;SDS011;2967;51.488;6.618;2022-07-23T19:46:11;8.30;;;3.60;;
5882;SDS011;2967;51.488;6.618;2022-07-23T19:51:15;4.53;;;4.13;;
5882;SDS011;2967;51.488;6.618;2022-07-23T19:56:18;5.90;;;4.60;;
5882;SDS011;2967;51.488;6.618;2022-07-23T20:01:32;4.83;;;4.30;;
5882;SDS011;2967;51.488;6.618;2022-07-23T20:06:36;5.93;;;4.50;;
5882;SDS011;2967;51.488;6.618;2022-07-23T20:11:40;6.30;;;4.60;;
5882;SDS011;2967;51.488;6.618;2022-07-23T20:16:45;4.17;;;3.77;;
5882;SDS011;2967;51.488;6.618;2022-07-23T20:21:50;6.53;;;3.27;;
5882;SDS011;2967;51.488;6.618;2022-07-23T20:26:52;3.97;;;3.20;;
5882;SDS011;2967;51.488;6.618;2022-07-23T20:31:57;4.60;;;4.20;;
5882;SDS011;2967;51.488;6.618;2022-07-23T20:37:00;5.93;;;4.17;;
5882;SDS011;2967;51.488;6.618;2022-07-23T20:42:04;5.30;;;4.67;;
5882;SDS011;2967;51.488;6.618;2022-07-23T20:47:09;4.80;;;4.10;;
5882;SDS011;2967;51.488;6.618;2022-07-23T20:52:14;5.43;;;3.80;;
5882;SDS011;2967;51.488;6.618;2022-07-23T20:57:23;8.30;;;3.90;;
5882;SDS011;2967;51.488;6.618;2022-07-23T21:02:28;9.77;;;4.30;;
5882;SDS011;2967;51.488;6.618;2022-07-23T21:07:32;9.17;;;5.20;;
5882;SDS011;2967;51.488;6.618;2022-07-23T21:12:36;5.30;;;4.73;;
5882;SDS011;2967;51.488;6.618;2022-07-23T21:17:41;4.70;;;4.20;;
5882;SDS011;2967;51.488;6.618;2022-07-23T21:22:46;8.30;;;5.00;;
5882;SDS011;2967;51.488;6.618;2022-07-23T21:27:49;6.63;;;4.90;;
5882;SDS011;2967;51.488;6.618;2022-07-23T21:32:54;9.70;;;4.70;;
5882;SDS011;2967;51.488;6.618;2022-07-23T21:37:57;5.57;;;4.70;;
5882;SDS011;2967;51.488;6.618;2022-07-23T21:43:00;6.80;;;4.80;;
5882;SDS011;2967;51.488;6.618;2022-07-23T21:48:06;8.83;;;5.30;;
5882;SDS011;2967;51.488;6.618;2022-07-23T21:53:12;6.80;;;4.83;;
5882;SDS011;2967;51.488;6.618;2022-07-23T21:58:16;5.27;;;4.67;;
5882;SDS011;2967;51.488;6.618;2022-07-23T22:03:20;6.03;;;4.70;;
5882;SDS011;2967;51.488;6.618;2022-07-23T22:08:23;8.10;;;5.03;;
5882;SDS011;2967;51.488;6.618;2022-07-23T22:13:26;10.60;;;5.30;;
5882;SDS011;2967;51.488;6.618;2022-07-23T22:18:32;5.67;;;4.50;;
5882;SDS011;2967;51.488;6.618;2022-07-23T22:23:34;7.40;;;4.70;;
5882;SDS011;2967;51.488;6.618;2022-07-23T22:28:37;5.83;;;3.97;;
5882;SDS011;2967;51.488;6.618;2022-07-23T22:33:41;4.83;;;4.03;;
5882;SDS011;2967;51.488;6.618;2022-07-23T22:38:44;5.90;;;5.10;;
5882;SDS011;2967;51.488;6.618;2022-07-23T22:43:47;12.33;;;5.13;;
5882;SDS011;2967;51.488;6.618;2022-07-23T22:48:51;5.40;;;4.60;;
5882;SDS011;2967;51.488;6.618;2022-07-23T22:53:55;5.43;;;4.90;;
5882;SDS011;2967;51.488;6.618;2022-07-23T22:59:01;6.23;;;5.20;;
5882;SDS011;2967;51.488;6.618;2022-07-23T23:04:27;9.97;;;5.23;;
5882;SDS011;2967;51.488;6.618;2022-07-23T23:09:30;11.23;;;6.17;;
5882;SDS011;2967;51.488;6.618;2022-07-23T23:15:06;6.17;;;5.40;;
5882;SDS011;2967;51.488;6.618;2022-07-23T23:20:19;7.40;;;5.10;;
5882;SDS011;2967;51.488;6.618;2022-07-23T23:25:22;9.53;;;6.00;;
5882;SDS011;2967;51.488;6.618;2022-07-23T23:30:25;6.37;;;5.30;;
5882;SDS011;2967;51.488;6.618;2022-07-23T23:35:37;5.77;;;4.90;;
5882;SDS011;2967;51.488;6.618;2022-07-23T23:40:40;5.20;;;4.50;;
5882;SDS011;2967;51.488;6.618;2022-07-23T23:45:43;8.23;;;4.90;;
5882;SDS011;2967;51.488;6.618;2022-07-23T23:50:47;10.53;;;5.87;;
5882;SDS011;2967;51.488;6.618;2022-07-23T23:55:50;7.00;;;5.43;;
